Nearby METAR Reports

 

KSJC - San Jose, California, USA
Distance from station: NE 14km
Updated: 25/10/2021 09:53
Few Clouds
Few Clouds
 Wind from varies
Wind: varies 9 km/h
Temperature: 15°C
Dew Point: 11°C
Humidity: 77%
Barometer: 1008.5 hPa
Clouds: Few Clouds
Visibility: 16 km
Cloud details: Few Clouds 366 m
Few Clouds 762 m
Few Clouds 2743 m
2021/10/25 16:53 KSJC 251653Z VRB05KT 10SM FEW012 FEW025 FEW090 15/11 A2978 RMK AO2 SLP084 TCU DSNT N AND SE AND W T01500111
KNUQ - Moffett Nas/Mtn, California, USA
Distance from station: N 14km
Updated: 22/10/2021 02:15
NOT Current
Overcast
Overcast
 Wind from ESE
Wind: ESE 22 km/h
Temperature: 18°C
Dew Point: 14°C
Humidity: 78%
Barometer: 1015.6 hPa
Clouds: Overcast
Visibility: 16 km
Cloud details: Few Clouds 671 m
Overcast 914 m
2021/10/22 09:15 KNUQ 220915Z AUTO 11012KT 10SM FEW022 OVC030 18/14 A2999 RMK AO2
 
KPAO - Palo Alto, California, USA
Distance from station: NNW 23km
Updated: 25/10/2021 09:47
Few Clouds
Few Clouds
 Wind from W
Wind: W 15 km/h
Temperature: 15°C
Dew Point: 11°C
Humidity: 77%
Barometer: 1008.5 hPa
Clouds: Few Clouds
Visibility: 16 km
Cloud details: Few Clouds 762 m
2021/10/25 16:47 KPAO 251647Z 27008KT 10SM FEW025 15/11 A2978
KRHV - San Jose/Reid, California, USA
Distance from station: ENE 19km
Updated: 25/10/2021 09:59
Partly cloudy
Partly cloudy
 Wind from NW
Wind: NW 11 km/h
Temperature: 15°C
Dew Point: 10°C
Humidity: 72%
Barometer: 1008.8 hPa
Clouds: Partly cloudy
Visibility: 16 km
Cloud details: Few Clouds 549 m
Partly cloudy 1067 m
2021/10/25 16:59 KRHV 251659Z 31006KT 10SM FEW018 SCT035 15/10 A2979
 
KOAK - Oakland, California, USA
Distance from station: NNW 50km
Updated: 25/10/2021 10:26
Mostly cloudy
Mostly cloudy
 Wind from W
Wind: W 28 km/h
Temperature: 16°C
Dew Point: 12°C
Humidity: 77%
Barometer: 1008.8 hPa
Clouds: Mostly cloudy
Visibility: 16 km
Cloud details: Few Clouds 549 m
Partly cloudy 640 m
Mostly cloudy 884 m
2021/10/25 17:26 KOAK 251726Z 27015KT 10SM FEW018 SCT021 BKN029 16/12 A2979 RMK AO2 T01610117
KSQL - San Carlos Airpo, California, USA
Distance from station: NW 34km
Updated: 25/10/2021 09:50
Few Clouds
Few Clouds
 Wind from WSW
Wind: WSW 9 km/h
Temperature: 15°C
Dew Point: 10°C
Humidity: 72%
Barometer: 1008.8 hPa
Clouds: Few Clouds
Visibility: 16 km
Cloud details: Few Clouds 305 m
2021/10/25 16:50 KSQL 251650Z 24005KT 10SM FEW010 15/10 A2979
 
KSFO - San Francisco, California, USA
Distance from station: NW 49km
Updated: 25/10/2021 09:56
Few Clouds
Few Clouds
 Wind from W
Wind: W 26 km/h
Temperature: 16°C
Dew Point: 11°C
Humidity: 72%
Barometer: 1008.1 hPa
Clouds: Few Clouds
Visibility: 14 km
Cloud details: Few Clouds 305 m
Few Clouds 610 m
2021/10/25 16:56 KSFO 251656Z 27014KT 9SM FEW010 FEW020 16/11 A2977 RMK AO2 SLP080 T01560106
KE16 - San Martin, California, USA
Distance from station: ESE 43km
Updated: 25/10/2021 10:35
Mostly cloudy
Mostly cloudy
 Wind from NNW
Wind: NNW 13 km/h
Temperature: 14°C
Dew Point: 11°C
Humidity: 82%
Barometer: 1009.5 hPa
Clouds: Mostly cloudy
Visibility: 16 km
Cloud details: Partly cloudy 853 m
Partly cloudy 1128 m
Mostly cloudy 1280 m
2021/10/25 17:35 KE16 251735Z AUTO 33007KT 10SM SCT028 SCT037 BKN042 14/11 A2981 RMK AO2 PWINO PNO
 
KWVI - Watsonville, California, USA
Distance from station: SSE 44km
Updated: 25/10/2021 09:53
Clear
Clear
 Wind from W
Wind: W 13 km/h
Temperature: 15°C
Dew Point: 12°C
Humidity: 82%
Barometer: 1008.8 hPa
Clouds: Clear
Visibility: 16 km
2021/10/25 16:53 KWVI 251653Z AUTO 28007KT 10SM CLR 15/12 A2979 RMK AO2 SLP087 T01500122
KHAF - Half Moon Bay, California, USA
Distance from station: WNW 50km
Updated: 25/10/2021 10:35
Haze, Clear
Haze, Clear
 Wind from NW
Wind: NW 13 km/h, Gust: 22 km/h
Temperature: 15°C
Dew Point: 12°C
Humidity: 82%
Barometer: 1009.5 hPa
Summary: Haze
Clouds: Clear
Visibility: 6 km
2021/10/25 17:35 KHAF 251735Z AUTO 31007G12KT 4SM HZ CLR 15/12 A2981 RMK AO2
 
KHWD - Hayward, California, USA
Distance from station: N 44km
Updated: 25/10/2021 10:09
Partly cloudy
Partly cloudy
 Wind from W
Wind: W 20 km/h
Temperature: 15°C
Dew Point: 12°C
Humidity: 82%
Barometer: 1008.5 hPa
Clouds: Partly cloudy
Visibility: 16 km
Cloud details: Partly cloudy 579 m
2021/10/25 17:09 KHWD 251709Z 27011KT 10SM SCT019 15/12 A2978 RMK AO2 T01500117
KLVK - Livermore, California, USA
Distance from station: NNE 51km
Updated: 25/10/2021 10:13
Partly cloudy
Partly cloudy
 Wind from W
Wind: W 24 km/h
Temperature: 14°C
Dew Point: 12°C
Humidity: 88%
Barometer: 1008.1 hPa
Clouds: Partly cloudy
Visibility: 16 km
Cloud details: Partly cloudy 610 m
Partly cloudy 1494 m
2021/10/25 17:13 KLVK 251713Z 26013KT 10SM SCT020 SCT049 14/12 A2977 RMK AO2 T01440117